sensor_id;sensor_type;location;lat;lon;timestamp;temperature;humidity
63047;DHT22;62025;39.238;9.126;2022-08-14T00:00:50;29.40;54.30
63047;DHT22;62025;39.238;9.126;2022-08-14T00:03:28;29.50;53.40
63047;DHT22;62025;39.238;9.126;2022-08-14T00:05:57;29.60;53.20
63047;DHT22;62025;39.238;9.126;2022-08-14T00:08:25;29.50;53.30
63047;DHT22;62025;39.238;9.126;2022-08-14T00:10:52;29.50;53.10
63047;DHT22;62025;39.238;9.126;2022-08-14T00:13:21;29.60;52.90
63047;DHT22;62025;39.238;9.126;2022-08-14T00:15:50;29.70;52.60
63047;DHT22;62025;39.238;9.126;2022-08-14T00:18:21;29.50;53.40
63047;DHT22;62025;39.238;9.126;2022-08-14T00:20:49;29.30;54.70
63047;DHT22;62025;39.238;9.126;2022-08-14T00:23:17;29.00;55.20
63047;DHT22;62025;39.238;9.126;2022-08-14T00:25:50;29.00;55.40
63047;DHT22;62025;39.238;9.126;2022-08-14T00:28:18;29.10;53.80
63047;DHT22;62025;39.238;9.126;2022-08-14T00:30:46;29.20;53.20
63047;DHT22;62025;39.238;9.126;2022-08-14T00:33:13;29.10;53.30
63047;DHT22;62025;39.238;9.126;2022-08-14T00:35:39;28.90;54.10
63047;DHT22;62025;39.238;9.126;2022-08-14T00:38:05;28.90;54.50
63047;DHT22;62025;39.238;9.126;2022-08-14T00:40:31;29.00;54.50
63047;DHT22;62025;39.238;9.126;2022-08-14T00:42:57;29.00;53.80
63047;DHT22;62025;39.238;9.126;2022-08-14T00:45:23;29.00;52.80
63047;DHT22;62025;39.238;9.126;2022-08-14T00:47:49;28.90;51.90
63047;DHT22;62025;39.238;9.126;2022-08-14T00:50:17;28.70;51.60
63047;DHT22;62025;39.238;9.126;2022-08-14T00:52:46;28.70;51.80
63047;DHT22;62025;39.238;9.126;2022-08-14T00:55:18;28.80;51.90
63047;DHT22;62025;39.238;9.126;2022-08-14T00:57:45;28.90;51.40
63047;DHT22;62025;39.238;9.126;2022-08-14T01:00:32;29.00;51.10
63047;DHT22;62025;39.238;9.126;2022-08-14T01:02:59;28.90;51.70
63047;DHT22;62025;39.238;9.126;2022-08-14T01:05:26;28.80;52.50
63047;DHT22;62025;39.238;9.126;2022-08-14T01:07:54;28.80;53.20
63047;DHT22;62025;39.238;9.126;2022-08-14T01:10:25;28.70;53.20
63047;DHT22;62025;39.238;9.126;2022-08-14T01:13:14;28.90;53.40
63047;DHT22;62025;39.238;9.126;2022-08-14T01:15:44;29.00;53.50
63047;DHT22;62025;39.238;9.126;2022-08-14T01:18:13;28.90;53.30
63047;DHT22;62025;39.238;9.126;2022-08-14T01:20:59;28.90;52.60
63047;DHT22;62025;39.238;9.126;2022-08-14T01:23:29;28.90;51.90
63047;DHT22;62025;39.238;9.126;2022-08-14T01:25:56;28.90;51.90
63047;DHT22;62025;39.238;9.126;2022-08-14T01:28:23;28.90;52.10
63047;DHT22;62025;39.238;9.126;2022-08-14T01:30:53;28.90;51.80
63047;DHT22;62025;39.238;9.126;2022-08-14T01:33:23;29.00;51.80
63047;DHT22;62025;39.238;9.126;2022-08-14T01:35:58;29.00;51.20
63047;DHT22;62025;39.238;9.126;2022-08-14T01:38:27;28.90;51.50
63047;DHT22;62025;39.238;9.126;2022-08-14T01:41:05;28.80;51.00
63047;DHT22;62025;39.238;9.126;2022-08-14T01:43:51;28.80;50.70
63047;DHT22;62025;39.238;9.126;2022-08-14T01:46:27;28.80;51.10
63047;DHT22;62025;39.238;9.126;2022-08-14T01:48:55;28.80;51.00
63047;DHT22;62025;39.238;9.126;2022-08-14T01:51:23;28.70;51.20
63047;DHT22;62025;39.238;9.126;2022-08-14T01:53:53;28.70;51.40
63047;DHT22;62025;39.238;9.126;2022-08-14T01:56:27;28.80;51.10
63047;DHT22;62025;39.238;9.126;2022-08-14T02:01:48;28.70;50.80
63047;DHT22;62025;39.238;9.126;2022-08-14T02:04:17;28.80;51.00
63047;DHT22;62025;39.238;9.126;2022-08-14T02:06:46;28.90;50.80
63047;DHT22;62025;39.238;9.126;2022-08-14T02:09:15;28.70;50.50
63047;DHT22;62025;39.238;9.126;2022-08-14T02:11:42;28.60;49.40
63047;DHT22;62025;39.238;9.126;2022-08-14T02:14:11;28.50;49.30
63047;DHT22;62025;39.238;9.126;2022-08-14T02:16:40;28.50;49.40
63047;DHT22;62025;39.238;9.126;2022-08-14T02:19:10;28.60;49.50
63047;DHT22;62025;39.238;9.126;2022-08-14T02:21:40;28.40;49.80
63047;DHT22;62025;39.238;9.126;2022-08-14T02:24:08;28.60;49.70
63047;DHT22;62025;39.238;9.126;2022-08-14T02:26:37;28.60;49.40
63047;DHT22;62025;39.238;9.126;2022-08-14T02:29:08;28.50;49.20
63047;DHT22;62025;39.238;9.126;2022-08-14T02:31:41;28.40;49.60
63047;DHT22;62025;39.238;9.126;2022-08-14T02:36:46;28.30;49.80
63047;DHT22;62025;39.238;9.126;2022-08-14T02:39:14;28.40;49.40
63047;DHT22;62025;39.238;9.126;2022-08-14T02:41:41;28.40;49.00
63047;DHT22;62025;39.238;9.126;2022-08-14T02:44:09;28.30;48.60
63047;DHT22;62025;39.238;9.126;2022-08-14T02:46:37;28.20;48.70
63047;DHT22;62025;39.238;9.126;2022-08-14T02:49:04;28.30;48.50
63047;DHT22;62025;39.238;9.126;2022-08-14T02:51:34;28.30;48.20
63047;DHT22;62025;39.238;9.126;2022-08-14T02:54:01;28.40;48.20
63047;DHT22;62025;39.238;9.126;2022-08-14T02:56:27;28.40;48.00
63047;DHT22;62025;39.238;9.126;2022-08-14T02:58:55;28.40;48.00
63047;DHT22;62025;39.238;9.126;2022-08-14T03:01:23;28.20;48.20
63047;DHT22;62025;39.238;9.126;2022-08-14T03:03:50;28.10;48.40
63047;DHT22;62025;39.238;9.126;2022-08-14T03:06:18;28.00;48.60
63047;DHT22;62025;39.238;9.126;2022-08-14T03:08:49;28.10;48.50
63047;DHT22;62025;39.238;9.126;2022-08-14T03:11:16;28.00;48.40
63047;DHT22;62025;39.238;9.126;2022-08-14T03:13:45;28.10;48.60
63047;DHT22;62025;39.238;9.126;2022-08-14T03:16:15;28.20;48.70
63047;DHT22;62025;39.238;9.126;2022-08-14T03:18:43;28.30;48.60
63047;DHT22;62025;39.238;9.126;2022-08-14T03:21:13;28.30;48.80
63047;DHT22;62025;39.238;9.126;2022-08-14T03:23:45;28.20;49.00
63047;DHT22;62025;39.238;9.126;2022-08-14T03:26:18;28.20;49.10
63047;DHT22;62025;39.238;9.126;2022-08-14T03:28:47;28.20;49.40
63047;DHT22;62025;39.238;9.126;2022-08-14T03:31:16;28.20;50.00
63047;DHT22;62025;39.238;9.126;2022-08-14T03:33:49;28.00;50.50
63047;DHT22;62025;39.238;9.126;2022-08-14T03:36:17;28.10;50.80
63047;DHT22;62025;39.238;9.126;2022-08-14T03:38:48;28.10;50.70
63047;DHT22;62025;39.238;9.126;2022-08-14T03:41:21;28.10;51.10
63047;DHT22;62025;39.238;9.126;2022-08-14T03:43:51;28.10;51.50
63047;DHT22;62025;39.238;9.126;2022-08-14T03:46:23;28.00;51.80
63047;DHT22;62025;39.238;9.126;2022-08-14T03:48:53;28.10;51.80
63047;DHT22;62025;39.238;9.126;2022-08-14T03:51:20;28.00;51.70
63047;DHT22;62025;39.238;9.126;2022-08-14T03:53:47;28.10;51.90
63047;DHT22;62025;39.238;9.126;2022-08-14T03:56:16;28.10;51.80
63047;DHT22;62025;39.238;9.126;2022-08-14T03:58:43;28.10;52.00
63047;DHT22;62025;39.238;9.126;2022-08-14T04:01:16;28.10;52.40
63047;DHT22;62025;39.238;9.126;2022-08-14T04:03:44;28.10;52.50
63047;DHT22;62025;39.238;9.126;2022-08-14T04:06:11;28.10;52.50
63047;DHT22;62025;39.238;9.126;2022-08-14T04:08:38;28.20;52.50
63047;DHT22;62025;39.238;9.126;2022-08-14T04:11:05;28.20;52.70
63047;DHT22;62025;39.238;9.126;2022-08-14T04:13:36;28.10;52.70
63047;DHT22;62025;39.238;9.126;2022-08-14T04:16:09;28.10;52.70
63047;DHT22;62025;39.238;9.126;2022-08-14T04:18:44;28.10;52.80
63047;DHT22;62025;39.238;9.126;2022-08-14T04:21:13;28.00;52.80
63047;DHT22;62025;39.238;9.126;2022-08-14T04:23:40;28.00;53.30
63047;DHT22;62025;39.238;9.126;2022-08-14T04:26:10;28.00;53.60
63047;DHT22;62025;39.238;9.126;2022-08-14T04:28:39;28.00;54.10
63047;DHT22;62025;39.238;9.126;2022-08-14T04:31:05;27.90;54.10
63047;DHT22;62025;39.238;9.126;2022-08-14T04:33:32;28.00;55.30
63047;DHT22;62025;39.238;9.126;2022-08-14T04:35:59;28.00;56.00
63047;DHT22;62025;39.238;9.126;2022-08-14T04:38:25;28.10;55.50
63047;DHT22;62025;39.238;9.126;2022-08-14T04:41:10;28.10;54.80
63047;DHT22;62025;39.238;9.126;2022-08-14T04:43:55;28.10;54.30
63047;DHT22;62025;39.238;9.126;2022-08-14T04:46:22;28.10;54.30
63047;DHT22;62025;39.238;9.126;2022-08-14T04:48:49;28.10;54.10
63047;DHT22;62025;39.238;9.126;2022-08-14T04:51:18;28.10;54.30
63047;DHT22;62025;39.238;9.126;2022-08-14T04:53:47;28.00;54.80
63047;DHT22;62025;39.238;9.126;2022-08-14T04:56:17;28.00;55.00
63047;DHT22;62025;39.238;9.126;2022-08-14T04:58:49;28.00;55.90
63047;DHT22;62025;39.238;9.126;2022-08-14T05:01:16;27.90;55.80
63047;DHT22;62025;39.238;9.126;2022-08-14T05:03:42;27.90;56.50
63047;DHT22;62025;39.238;9.126;2022-08-14T05:06:11;27.90;57.10
63047;DHT22;62025;39.238;9.126;2022-08-14T05:08:38;27.90;57.20
63047;DHT22;62025;39.238;9.126;2022-08-14T05:11:06;27.90;57.80
63047;DHT22;62025;39.238;9.126;2022-08-14T05:13:34;27.70;58.30
63047;DHT22;62025;39.238;9.126;2022-08-14T05:16:02;27.60;58.80
63047;DHT22;62025;39.238;9.126;2022-08-14T05:18:30;27.80;58.60
63047;DHT22;62025;39.238;9.126;2022-08-14T05:21:02;27.80;58.60
63047;DHT22;62025;39.238;9.126;2022-08-14T05:23:31;27.80;58.70
63047;DHT22;62025;39.238;9.126;2022-08-14T05:26:00;27.80;59.60
63047;DHT22;62025;39.238;9.126;2022-08-14T05:28:30;27.40;61.10
63047;DHT22;62025;39.238;9.126;2022-08-14T05:31:00;27.50;60.80
63047;DHT22;62025;39.238;9.126;2022-08-14T05:33:30;27.40;61.80
63047;DHT22;62025;39.238;9.126;2022-08-14T05:35:58;27.50;62.40
63047;DHT22;62025;39.238;9.126;2022-08-14T05:38:34;27.40;63.20
63047;DHT22;62025;39.238;9.126;2022-08-14T05:41:07;27.20;63.60
63047;DHT22;62025;39.238;9.126;2022-08-14T05:43:35;27.40;63.20
63047;DHT22;62025;39.238;9.126;2022-08-14T05:46:02;27.70;61.70
63047;DHT22;62025;39.238;9.126;2022-08-14T05:48:28;27.80;61.60
63047;DHT22;62025;39.238;9.126;2022-08-14T05:50:54;27.90;61.90
63047;DHT22;62025;39.238;9.126;2022-08-14T05:53:26;28.00;61.50
63047;DHT22;62025;39.238;9.126;2022-08-14T05:55:54;27.60;63.40
63047;DHT22;62025;39.238;9.126;2022-08-14T05:58:21;27.40;64.80
63047;DHT22;62025;39.238;9.126;2022-08-14T06:00:48;27.50;65.00
63047;DHT22;62025;39.238;9.126;2022-08-14T06:03:19;27.50;65.30
63047;DHT22;62025;39.238;9.126;2022-08-14T06:05:49;27.40;65.80
63047;DHT22;62025;39.238;9.126;2022-08-14T06:08:25;27.70;64.80
63047;DHT22;62025;39.238;9.126;2022-08-14T06:10:55;27.90;64.50
63047;DHT22;62025;39.238;9.126;2022-08-14T06:13:29;28.00;64.00
63047;DHT22;62025;39.238;9.126;2022-08-14T06:15:55;28.00;64.30
63047;DHT22;62025;39.238;9.126;2022-08-14T06:18:21;28.00;64.10
63047;DHT22;62025;39.238;9.126;2022-08-14T06:20:48;28.30;63.30
63047;DHT22;62025;39.238;9.126;2022-08-14T06:23:13;28.40;63.10
63047;DHT22;62025;39.238;9.126;2022-08-14T06:25:40;28.20;63.20
63047;DHT22;62025;39.238;9.126;2022-08-14T06:28:07;28.40;62.80
63047;DHT22;62025;39.238;9.126;2022-08-14T06:30:33;28.60;62.00
63047;DHT22;62025;39.238;9.126;2022-08-14T06:32:59;28.70;61.50
63047;DHT22;62025;39.238;9.126;2022-08-14T06:35:25;28.90;61.20
63047;DHT22;62025;39.238;9.126;2022-08-14T06:37:56;29.00;60.50
63047;DHT22;62025;39.238;9.126;2022-08-14T06:40:28;29.10;59.50
63047;DHT22;62025;39.238;9.126;2022-08-14T06:42:58;29.20;59.10
63047;DHT22;62025;39.238;9.126;2022-08-14T06:45:25;29.20;58.80
63047;DHT22;62025;39.238;9.126;2022-08-14T06:47:51;29.20;59.10
63047;DHT22;62025;39.238;9.126;2022-08-14T06:50:19;29.40;58.40
63047;DHT22;62025;39.238;9.126;2022-08-14T06:52:47;29.50;58.30
63047;DHT22;62025;39.238;9.126;2022-08-14T06:55:15;29.60;58.10
63047;DHT22;62025;39.238;9.126;2022-08-14T06:57:46;29.60;57.90
63047;DHT22;62025;39.238;9.126;2022-08-14T07:00:15;29.70;57.70
63047;DHT22;62025;39.238;9.126;2022-08-14T07:02:43;29.70;57.40
63047;DHT22;62025;39.238;9.126;2022-08-14T07:05:29;29.90;57.20
63047;DHT22;62025;39.238;9.126;2022-08-14T07:08:24;29.90;56.90
63047;DHT22;62025;39.238;9.126;2022-08-14T07:10:57;30.10;56.70
63047;DHT22;62025;39.238;9.126;2022-08-14T07:13:25;30.10;56.80
63047;DHT22;62025;39.238;9.126;2022-08-14T07:15:53;30.40;56.00
63047;DHT22;62025;39.238;9.126;2022-08-14T07:18:28;30.40;55.60
63047;DHT22;62025;39.238;9.126;2022-08-14T07:20:57;30.50;55.40
63047;DHT22;62025;39.238;9.126;2022-08-14T07:23:26;30.50;55.10
63047;DHT22;62025;39.238;9.126;2022-08-14T07:25:54;30.80;54.30
63047;DHT22;62025;39.238;9.126;2022-08-14T07:28:24;30.70;54.00
63047;DHT22;62025;39.238;9.126;2022-08-14T07:30:52;30.60;54.40
63047;DHT22;62025;39.238;9.126;2022-08-14T07:33:24;30.40;54.90
63047;DHT22;62025;39.238;9.126;2022-08-14T07:35:52;30.30;55.20
63047;DHT22;62025;39.238;9.126;2022-08-14T07:38:21;30.40;55.60
63047;DHT22;62025;39.238;9.126;2022-08-14T07:40:49;30.30;56.10
63047;DHT22;62025;39.238;9.126;2022-08-14T07:43:16;30.40;55.90
63047;DHT22;62025;39.238;9.126;2022-08-14T07:45:45;30.70;55.70
63047;DHT22;62025;39.238;9.126;2022-08-14T07:48:12;30.60;55.40
63047;DHT22;62025;39.238;9.126;2022-08-14T07:50:38;30.40;55.80
63047;DHT22;62025;39.238;9.126;2022-08-14T07:53:04;30.40;56.00
63047;DHT22;62025;39.238;9.126;2022-08-14T07:55:34;30.40;56.10
63047;DHT22;62025;39.238;9.126;2022-08-14T07:58:01;30.50;55.70
63047;DHT22;62025;39.238;9.126;2022-08-14T08:00:27;30.50;55.60
63047;DHT22;62025;39.238;9.126;2022-08-14T08:02:55;30.50;55.90
63047;DHT22;62025;39.238;9.126;2022-08-14T08:05:23;30.40;56.40
63047;DHT22;62025;39.238;9.126;2022-08-14T08:07:51;30.60;56.00
63047;DHT22;62025;39.238;9.126;2022-08-14T08:10:22;30.50;56.30
63047;DHT22;62025;39.238;9.126;2022-08-14T08:15:47;30.40;56.90
63047;DHT22;62025;39.238;9.126;2022-08-14T08:18:16;30.60;56.90
63047;DHT22;62025;39.238;9.126;2022-08-14T08:20:44;30.70;56.80
63047;DHT22;62025;39.238;9.126;2022-08-14T08:23:12;30.70;56.60
63047;DHT22;62025;39.238;9.126;2022-08-14T08:25:43;30.90;56.60
63047;DHT22;62025;39.238;9.126;2022-08-14T08:28:19;31.00;55.90
63047;DHT22;62025;39.238;9.126;2022-08-14T08:30:49;30.70;56.40
63047;DHT22;62025;39.238;9.126;2022-08-14T08:33:21;30.50;56.70
63047;DHT22;62025;39.238;9.126;2022-08-14T08:35:49;30.70;56.50
63047;DHT22;62025;39.238;9.126;2022-08-14T08:38:18;30.90;55.40
63047;DHT22;62025;39.238;9.126;2022-08-14T08:40:48;30.80;55.40
63047;DHT22;62025;39.238;9.126;2022-08-14T08:43:23;30.80;55.50
63047;DHT22;62025;39.238;9.126;2022-08-14T08:48:44;30.90;54.90
63047;DHT22;62025;39.238;9.126;2022-08-14T08:51:33;31.00;54.70
63047;DHT22;62025;39.238;9.126;2022-08-14T08:54:14;31.30;54.00
63047;DHT22;62025;39.238;9.126;2022-08-14T09:01:52;31.20;54.40
63047;DHT22;62025;39.238;9.126;2022-08-14T09:04:29;31.40;54.50
63047;DHT22;62025;39.238;9.126;2022-08-14T09:06:59;31.60;54.20
63047;DHT22;62025;39.238;9.126;2022-08-14T09:09:29;31.40;55.20
63047;DHT22;62025;39.238;9.126;2022-08-14T09:11:58;31.00;55.60
63047;DHT22;62025;39.238;9.126;2022-08-14T09:14:29;31.00;55.80
63047;DHT22;62025;39.238;9.126;2022-08-14T09:16:58;30.90;56.70
63047;DHT22;62025;39.238;9.126;2022-08-14T09:19:26;31.00;55.80
63047;DHT22;62025;39.238;9.126;2022-08-14T09:21:52;31.00;54.70
63047;DHT22;62025;39.238;9.126;2022-08-14T09:24:20;31.00;54.20
63047;DHT22;62025;39.238;9.126;2022-08-14T09:26:47;31.20;53.90
63047;DHT22;62025;39.238;9.126;2022-08-14T09:29:13;31.20;54.40
63047;DHT22;62025;39.238;9.126;2022-08-14T09:31:43;31.40;54.20
63047;DHT22;62025;39.238;9.126;2022-08-14T09:37:52;31.20;53.70
63047;DHT22;62025;39.238;9.126;2022-08-14T09:43:04;31.20;53.50
63047;DHT22;62025;39.238;9.126;2022-08-14T09:45:47;31.00;54.30
63047;DHT22;62025;39.238;9.126;2022-08-14T09:48:16;30.90;54.30
63047;DHT22;62025;39.238;9.126;2022-08-14T09:50:54;30.90;54.80
63047;DHT22;62025;39.238;9.126;2022-08-14T09:53:42;31.00;55.30
63047;DHT22;62025;39.238;9.126;2022-08-14T09:56:10;31.40;54.60
63047;DHT22;62025;39.238;9.126;2022-08-14T09:58:44;31.20;54.50
63047;DHT22;62025;39.238;9.126;2022-08-14T10:01:17;31.20;54.10
63047;DHT22;62025;39.238;9.126;2022-08-14T10:06:23;31.40;54.20
63047;DHT22;62025;39.238;9.126;2022-08-14T10:09:03;31.40;54.10
63047;DHT22;62025;39.238;9.126;2022-08-14T10:11:33;31.40;53.80
63047;DHT22;62025;39.238;9.126;2022-08-14T10:14:32;31.40;53.90
63047;DHT22;62025;39.238;9.126;2022-08-14T10:16:59;31.80;53.30
63047;DHT22;62025;39.238;9.126;2022-08-14T10:19:26;32.20;52.20
63047;DHT22;62025;39.238;9.126;2022-08-14T10:21:58;32.00;52.10
63047;DHT22;62025;39.238;9.126;2022-08-14T10:24:29;31.40;53.20
63047;DHT22;62025;39.238;9.126;2022-08-14T10:27:00;31.40;53.20
63047;DHT22;62025;39.238;9.126;2022-08-14T10:29:36;31.60;52.30
63047;DHT22;62025;39.238;9.126;2022-08-14T10:32:03;31.60;51.30
63047;DHT22;62025;39.238;9.126;2022-08-14T10:34:33;31.90;51.00
63047;DHT22;62025;39.238;9.126;2022-08-14T10:37:07;31.80;51.80
63047;DHT22;62025;39.238;9.126;2022-08-14T10:39:37;31.80;50.70
63047;DHT22;62025;39.238;9.126;2022-08-14T10:44:41;31.50;50.80
63047;DHT22;62025;39.238;9.126;2022-08-14T10:47:15;31.20;51.30
63047;DHT22;62025;39.238;9.126;2022-08-14T10:49:55;31.40;52.00
63047;DHT22;62025;39.238;9.126;2022-08-14T10:52:29;31.40;52.80
63047;DHT22;62025;39.238;9.126;2022-08-14T10:55:33;31.40;52.70
63047;DHT22;62025;39.238;9.126;2022-08-14T10:58:05;31.40;53.60
63047;DHT22;62025;39.238;9.126;2022-08-14T11:00:39;31.40;53.80
63047;DHT22;62025;39.238;9.126;2022-08-14T11:03:11;31.30;54.00
63047;DHT22;62025;39.238;9.126;2022-08-14T11:08:10;31.10;58.00
63047;DHT22;62025;39.238;9.126;2022-08-14T11:10:39;31.40;57.60
63047;DHT22;62025;39.238;9.126;2022-08-14T11:13:09;31.00;56.00
63047;DHT22;62025;39.238;9.126;2022-08-14T11:15:40;30.90;55.80
63047;DHT22;62025;39.238;9.126;2022-08-14T11:18:06;31.00;57.60
63047;DHT22;62025;39.238;9.126;2022-08-14T11:20:33;31.00;58.80
63047;DHT22;62025;39.238;9.126;2022-08-14T11:23:00;30.90;58.30
63047;DHT22;62025;39.238;9.126;2022-08-14T11:25:29;31.00;59.00
63047;DHT22;62025;39.238;9.126;2022-08-14T11:27:59;30.80;59.60
63047;DHT22;62025;39.238;9.126;2022-08-14T11:30:28;30.80;59.30
63047;DHT22;62025;39.238;9.126;2022-08-14T11:32:56;30.80;57.50
63047;DHT22;62025;39.238;9.126;2022-08-14T11:35:25;30.80;58.50
63047;DHT22;62025;39.238;9.126;2022-08-14T11:38:03;30.80;60.50
63047;DHT22;62025;39.238;9.126;2022-08-14T11:40:34;30.70;59.30
63047;DHT22;62025;39.238;9.126;2022-08-14T11:43:06;30.70;61.50
63047;DHT22;62025;39.238;9.126;2022-08-14T11:45:37;30.80;58.90
63047;DHT22;62025;39.238;9.126;2022-08-14T11:50:50;30.90;56.90
63047;DHT22;62025;39.238;9.126;2022-08-14T11:53:27;30.90;57.80
63047;DHT22;62025;39.238;9.126;2022-08-14T11:56:04;31.00;56.60
63047;DHT22;62025;39.238;9.126;2022-08-14T11:58:35;31.00;56.90
63047;DHT22;62025;39.238;9.126;2022-08-14T12:01:07;31.10;56.40
63047;DHT22;62025;39.238;9.126;2022-08-14T12:03:45;31.50;56.20
63047;DHT22;62025;39.238;9.126;2022-08-14T12:06:17;31.80;55.40
63047;DHT22;62025;39.238;9.126;2022-08-14T12:08:45;31.50;56.50
63047;DHT22;62025;39.238;9.126;2022-08-14T12:11:13;31.40;57.90
63047;DHT22;62025;39.238;9.126;2022-08-14T12:13:41;31.10;58.20
63047;DHT22;62025;39.238;9.126;2022-08-14T12:16:10;30.90;58.60
63047;DHT22;62025;39.238;9.126;2022-08-14T12:18:39;31.10;56.20
63047;DHT22;62025;39.238;9.126;2022-08-14T12:24:07;31.60;57.40
63047;DHT22;62025;39.238;9.126;2022-08-14T12:26:35;31.40;55.30
63047;DHT22;62025;39.238;9.126;2022-08-14T12:29:13;31.40;58.40
63047;DHT22;62025;39.238;9.126;2022-08-14T12:31:41;31.20;59.60
63047;DHT22;62025;39.238;9.126;2022-08-14T12:34:11;31.10;60.40
63047;DHT22;62025;39.238;9.126;2022-08-14T12:36:38;31.00;62.30
63047;DHT22;62025;39.238;9.126;2022-08-14T12:39:20;30.90;63.10
63047;DHT22;62025;39.238;9.126;2022-08-14T12:41:51;30.90;63.70
63047;DHT22;62025;39.238;9.126;2022-08-14T12:44:35;30.80;63.30
63047;DHT22;62025;39.238;9.126;2022-08-14T12:47:13;30.90;63.80
63047;DHT22;62025;39.238;9.126;2022-08-14T12:52:26;30.90;63.50
63047;DHT22;62025;39.238;9.126;2022-08-14T12:55:04;31.00;63.10
63047;DHT22;62025;39.238;9.126;2022-08-14T12:57:41;31.30;63.20
63047;DHT22;62025;39.238;9.126;2022-08-14T13:00:12;31.10;61.00
63047;DHT22;62025;39.238;9.126;2022-08-14T13:02:46;31.40;59.60
63047;DHT22;62025;39.238;9.126;2022-08-14T13:05:26;31.30;61.10
63047;DHT22;62025;39.238;9.126;2022-08-14T13:07:57;31.00;61.20
63047;DHT22;62025;39.238;9.126;2022-08-14T13:10:25;31.40;61.50
63047;DHT22;62025;39.238;9.126;2022-08-14T13:12:55;31.10;63.10
63047;DHT22;62025;39.238;9.126;2022-08-14T13:15:23;30.80;64.30
63047;DHT22;62025;39.238;9.126;2022-08-14T13:17:51;30.70;64.50
63047;DHT22;62025;39.238;9.126;2022-08-14T13:20:20;30.90;64.20
63047;DHT22;62025;39.238;9.126;2022-08-14T13:22:48;31.20;61.10
63047;DHT22;62025;39.238;9.126;2022-08-14T13:25:20;31.30;61.80
63047;DHT22;62025;39.238;9.126;2022-08-14T13:27:53;30.90;63.90
63047;DHT22;62025;39.238;9.126;2022-08-14T13:30:23;30.70;64.10
63047;DHT22;62025;39.238;9.126;2022-08-14T13:32:52;30.70;65.70
63047;DHT22;62025;39.238;9.126;2022-08-14T13:35:19;30.70;65.20
63047;DHT22;62025;39.238;9.126;2022-08-14T13:37:47;30.50;65.70
63047;DHT22;62025;39.238;9.126;2022-08-14T13:40:15;30.50;65.20
63047;DHT22;62025;39.238;9.126;2022-08-14T13:42:46;30.40;66.20
63047;DHT22;62025;39.238;9.126;2022-08-14T13:45:13;30.70;65.90
63047;DHT22;62025;39.238;9.126;2022-08-14T13:47:41;30.90;65.20
63047;DHT22;62025;39.238;9.126;2022-08-14T13:50:10;30.70;65.30
63047;DHT22;62025;39.238;9.126;2022-08-14T13:55:24;30.90;63.10
63047;DHT22;62025;39.238;9.126;2022-08-14T13:57:58;31.30;62.10
63047;DHT22;62025;39.238;9.126;2022-08-14T14:00:26;31.00;62.20
63047;DHT22;62025;39.238;9.126;2022-08-14T14:02:53;30.70;62.50
63047;DHT22;62025;39.238;9.126;2022-08-14T14:05:22;30.80;63.20
63047;DHT22;62025;39.238;9.126;2022-08-14T14:07:51;30.90;63.00
63047;DHT22;62025;39.238;9.126;2022-08-14T14:10:20;30.90;62.30
63047;DHT22;62025;39.238;9.126;2022-08-14T14:12:48;30.90;61.50
63047;DHT22;62025;39.238;9.126;2022-08-14T14:15:19;30.90;61.70
63047;DHT22;62025;39.238;9.126;2022-08-14T14:17:46;30.90;62.20
63047;DHT22;62025;39.238;9.126;2022-08-14T14:20:16;30.70;63.40
63047;DHT22;62025;39.238;9.126;2022-08-14T14:22:47;30.80;65.20
63047;DHT22;62025;39.238;9.126;2022-08-14T14:25:15;30.60;66.20
63047;DHT22;62025;39.238;9.126;2022-08-14T14:27:45;30.90;64.10
63047;DHT22;62025;39.238;9.126;2022-08-14T14:30:14;30.90;65.40
63047;DHT22;62025;39.238;9.126;2022-08-14T14:32:43;30.60;66.40
63047;DHT22;62025;39.238;9.126;2022-08-14T14:35:16;30.90;65.60
63047;DHT22;62025;39.238;9.126;2022-08-14T14:37:46;30.80;65.80
63047;DHT22;62025;39.238;9.126;2022-08-14T14:40:14;30.60;66.40
63047;DHT22;62025;39.238;9.126;2022-08-14T14:45:18;30.70;65.10
63047;DHT22;62025;39.238;9.126;2022-08-14T14:47:49;30.70;66.10
63047;DHT22;62025;39.238;9.126;2022-08-14T14:50:21;30.80;66.00
63047;DHT22;62025;39.238;9.126;2022-08-14T14:52:49;30.60;66.50
63047;DHT22;62025;39.238;9.126;2022-08-14T14:55:16;30.80;66.00
63047;DHT22;62025;39.238;9.126;2022-08-14T14:57:44;30.90;65.90
63047;DHT22;62025;39.238;9.126;2022-08-14T15:00:16;30.70;66.10
63047;DHT22;62025;39.238;9.126;2022-08-14T15:02:48;30.50;66.90
63047;DHT22;62025;39.238;9.126;2022-08-14T15:05:16;30.60;66.90
63047;DHT22;62025;39.238;9.126;2022-08-14T15:07:44;30.70;66.40
63047;DHT22;62025;39.238;9.126;2022-08-14T15:10:14;30.90;65.40
63047;DHT22;62025;39.238;9.126;2022-08-14T15:12:42;30.80;66.00
63047;DHT22;62025;39.238;9.126;2022-08-14T15:15:10;30.80;64.10
63047;DHT22;62025;39.238;9.126;2022-08-14T15:17:40;30.80;65.10
63047;DHT22;62025;39.238;9.126;2022-08-14T15:20:10;30.70;64.90
63047;DHT22;62025;39.238;9.126;2022-08-14T15:22:38;30.70;65.20
63047;DHT22;62025;39.238;9.126;2022-08-14T15:25:06;30.50;66.30
63047;DHT22;62025;39.238;9.126;2022-08-14T15:27:37;30.40;67.60
63047;DHT22;62025;39.238;9.126;2022-08-14T15:30:05;30.40;68.10
63047;DHT22;62025;39.238;9.126;2022-08-14T15:32:32;30.40;67.80
63047;DHT22;62025;39.238;9.126;2022-08-14T15:34:59;30.50;67.80
63047;DHT22;62025;39.238;9.126;2022-08-14T15:37:26;30.40;68.10
63047;DHT22;62025;39.238;9.126;2022-08-14T15:39:52;30.40;67.70
63047;DHT22;62025;39.238;9.126;2022-08-14T15:42:20;30.40;68.40
63047;DHT22;62025;39.238;9.126;2022-08-14T15:44:49;30.40;68.20
63047;DHT22;62025;39.238;9.126;2022-08-14T15:47:16;30.50;67.80
63047;DHT22;62025;39.238;9.126;2022-08-14T15:49:42;30.50;68.00
63047;DHT22;62025;39.238;9.126;2022-08-14T15:52:08;30.20;68.40
63047;DHT22;62025;39.238;9.126;2022-08-14T15:54:35;30.10;69.10
63047;DHT22;62025;39.238;9.126;2022-08-14T15:57:06;30.30;69.00
63047;DHT22;62025;39.238;9.126;2022-08-14T15:59:36;30.40;68.90
63047;DHT22;62025;39.238;9.126;2022-08-14T16:02:21;30.20;69.10
63047;DHT22;62025;39.238;9.126;2022-08-14T16:04:48;30.10;69.40
63047;DHT22;62025;39.238;9.126;2022-08-14T16:07:15;30.10;69.50
63047;DHT22;62025;39.238;9.126;2022-08-14T16:09:41;30.00;69.40
63047;DHT22;62025;39.238;9.126;2022-08-14T16:12:08;29.90;69.80
63047;DHT22;62025;39.238;9.126;2022-08-14T16:14:35;29.90;70.10
63047;DHT22;62025;39.238;9.126;2022-08-14T16:17:03;30.00;69.70
63047;DHT22;62025;39.238;9.126;2022-08-14T16:19:32;29.80;69.40
63047;DHT22;62025;39.238;9.126;2022-08-14T16:22:08;30.00;69.70
63047;DHT22;62025;39.238;9.126;2022-08-14T16:24:38;29.90;70.30
63047;DHT22;62025;39.238;9.126;2022-08-14T16:27:08;29.90;70.10
63047;DHT22;62025;39.238;9.126;2022-08-14T16:29:39;29.90;70.20
63047;DHT22;62025;39.238;9.126;2022-08-14T16:32:07;30.00;70.00